^^
Your Local Weather - Clay, NY Station Historical Data
Daily Summary for January 21, 2018 Units:  Both    English   Metric
« Previous Day
Next Day »
Daily Weekly Monthly Yearly Custom
  High: Low: Average:
Temperature: 42.7 °F /  5.9 °C 26.3 °F /  -3.2 °C 35.1 °F /  1.7 °C
Dew Point: 31.7 °F /  -0.2 °C 22.8 °F /  -5.1 °C 28.6 °F /  -1.9 °C
Humidity: 89% 64% 77%
Wind Speed: 3.0mph /  4.8km/h - 0.6mph /  1km/h
Wind Gust: 6.0mph /  9.7km/h - -
Wind- - ESE
Pressure: 30.13 in /  1020.2 hPa 30.01 in /  1016.1 hPa -
Precipitation: 0.04 in /  1.02 mm    
Historical Graphs
 
 
Tabular Data for January 21, 2018
Time Temperature Dew Point Pressure Wind Wind Speed Wind Gust Humidity Rainfall Rate (Hourly) solar
00:05 33.4 °F /  0.8 °C 27.0 °F /  -2.8 °C 30.01in /  1016.1hPa WSW 2.0mph /  3.2km/h 6.0mph /  9.7km/h 77% 0.00in /  0mm 0 W/m2
00:12 33.5 °F /  0.8 °C 27.1 °F /  -2.7 °C 30.01in /  1016.1hPa SW 2.0mph /  3.2km/h 2.0mph /  3.2km/h 77% 0.00in /  0mm 0 W/m2
00:18 33.5 °F /  0.8 °C 27.1 °F /  -2.7 °C 30.02in /  1016.5hPa SW 1.0mph /  1.6km/h 2.0mph /  3.2km/h 77% 0.00in /  0mm 0 W/m2
00:24 33.4 °F /  0.8 °C 27.0 °F /  -2.8 °C 30.02in /  1016.5hPa SW 1.0mph /  1.6km/h 2.0mph /  3.2km/h 77% 0.00in /  0mm 0 W/m2
00:30 33.4 °F /  0.8 °C 27.0 °F /  -2.8 °C 30.02in /  1016.5hPa SW 1.0mph /  1.6km/h 1.0mph /  1.6km/h 77% 0.00in /  0mm 0 W/m2
00:35 33.4 °F /  0.8 °C 27.0 °F /  -2.8 °C 30.02in /  1016.5hPa WSW 1.0mph /  1.6km/h 2.0mph /  3.2km/h 77% 0.00in /  0mm 0 W/m2
00:53 33.0 °F /  0.6 °C 26.6 °F /  -3 °C 30.03in /  1016.8hPa WSW 1.0mph /  1.6km/h 2.0mph /  3.2km/h 77% 0.00in /  0mm 0 W/m2
00:59 32.7 °F /  0.4 °C 26.3 °F /  -3.2 °C 30.03in /  1016.8hPa Calm     77% 0.00in /  0mm 0 W/m2
01:06 32.3 °F /  0.2 °C 25.9 °F /  -3.4 °C 30.03in /  1016.8hPa Calm     77% 0.00in /  0mm 0 W/m2
01:12 31.9 °F /  -0.1 °C 25.8 °F /  -3.4 °C 30.03in /  1016.8hPa Calm     78% 0.00in /  0mm 0 W/m2
01:18 31.5 °F /  -0.3 °C 25.4 °F /  -3.7 °C 30.03in /  1016.8hPa Calm     78% 0.00in /  0mm 0 W/m2
01:24 30.9 °F /  -0.6 °C 24.8 °F /  -4 °C 30.03in /  1016.8hPa Calm     78% 0.00in /  0mm 0 W/m2
01:30 30.0 °F /  -1.1 °C 24.0 °F /  -4.4 °C 30.03in /  1016.8hPa Calm     78% 0.00in /  0mm 0 W/m2
01:36 29.3 °F /  -1.5 °C 23.6 °F /  -4.7 °C 30.03in /  1016.8hPa Calm     79% 0.00in /  0mm 0 W/m2
01:42 28.9 °F /  -1.7 °C 23.8 °F /  -4.6 °C 30.03in /  1016.8hPa Calm     81% 0.00in /  0mm 0 W/m2
01:48 28.6 °F /  -1.9 °C 23.5 °F /  -4.7 °C 30.04in /  1017.2hPa Calm     81% 0.00in /  0mm 0 W/m2
01:54 28.3 °F /  -2.1 °C 23.5 °F /  -4.7 °C 30.03in /  1016.8hPa Calm     82% 0.00in /  0mm 0 W/m2
02:00 28.0 °F /  -2.2 °C 23.2 °F /  -4.9 °C 30.04in /  1017.2hPa Calm     82% 0.00in /  0mm 0 W/m2
02:06 27.8 °F /  -2.3 °C 23.3 °F /  -4.8 °C 30.04in /  1017.2hPa Calm     83% 0.00in /  0mm 0 W/m2
02:12 27.5 °F /  -2.5 °C 23.3 °F /  -4.8 °C 30.04in /  1017.2hPa Calm     84% 0.00in /  0mm 0 W/m2
02:18 27.5 °F /  -2.5 °C 23.3 °F /  -4.8 °C 30.05in /  1017.5hPa Calm     84% 0.00in /  0mm 0 W/m2
02:24 27.4 °F /  -2.6 °C 23.5 °F /  -4.7 °C 30.05in /  1017.5hPa Calm     85% 0.00in /  0mm 0 W/m2
02:30 27.4 °F /  -2.6 °C 23.5 °F /  -4.7 °C 30.05in /  1017.5hPa Calm     85% 0.00in /  0mm 0 W/m2
02:48 27.9 °F /  -2.3 °C 24.3 °F /  -4.3 °C 30.05in /  1017.5hPa Calm     86% 0.00in /  0mm 0 W/m2
02:54 28.3 °F /  -2.1 °C 24.6 °F /  -4.1 °C 30.05in /  1017.5hPa Calm     86% 0.00in /  0mm 0 W/m2
03:00 28.7 °F /  -1.8 °C 25.3 °F /  -3.7 °C 30.05in /  1017.5hPa Calm     87% 0.00in /  0mm 0 W/m2
03:06 28.8 °F /  -1.8 °C 25.1 °F /  -3.8 °C 30.05in /  1017.5hPa Calm     86% 0.00in /  0mm 0 W/m2
03:12 28.7 °F /  -1.8 °C 25.0 °F /  -3.9 °C 30.05in /  1017.5hPa Calm     86% 0.00in /  0mm 0 W/m2
03:24 28.7 °F /  -1.8 °C 25.0 °F /  -3.9 °C 30.05in /  1017.5hPa Calm     86% 0.00in /  0mm 0 W/m2
03:30 29.2 °F /  -1.6 °C 25.8 °F /  -3.4 °C 30.06in /  1017.8hPa Calm   2.0mph /  3.2km/h 87% 0.00in /  0mm 0 W/m2
03:36 30.1 °F /  -1.1 °C 26.7 °F /  -2.9 °C 30.05in /  1017.5hPa WSW 1.0mph /  1.6km/h 2.0mph /  3.2km/h 87% 0.00in /  0mm 0 W/m2
03:42 30.7 °F /  -0.7 °C 27.0 °F /  -2.8 °C 30.06in /  1017.8hPa Calm   2.0mph /  3.2km/h 86% 0.00in /  0mm 0 W/m2
03:48 31.1 °F /  -0.5 °C 27.1 °F /  -2.7 °C 30.06in /  1017.8hPa Calm   2.0mph /  3.2km/h 85% 0.00in /  0mm 0 W/m2
03:54 31.5 °F /  -0.3 °C 27.5 °F /  -2.5 °C 30.05in /  1017.5hPa Calm   1.0mph /  1.6km/h 85% 0.00in /  0mm 0 W/m2
04:00 31.9 °F /  -0.1 °C 27.6 °F /  -2.4 °C 30.06in /  1017.8hPa WSW 1.0mph /  1.6km/h 1.0mph /  1.6km/h 84% 0.00in /  0mm 0 W/m2
04:06 32.2 °F /  0.1 °C 27.6 °F /  -2.4 °C 30.06in /  1017.8hPa Calm   1.0mph /  1.6km/h 83% 0.00in /  0mm 0 W/m2
04:12 32.4 °F /  0.2 °C 27.5 °F /  -2.5 °C 30.06in /  1017.8hPa Calm     82% 0.00in /  0mm 0 W/m2
04:18 32.6 °F /  0.3 °C 27.7 °F /  -2.4 °C 30.06in /  1017.8hPa Calm   1.0mph /  1.6km/h 82% 0.00in /  0mm 0 W/m2
04:24 32.8 °F /  0.4 °C 27.6 °F /  -2.4 °C 30.07in /  1018.2hPa WSW 1.0mph /  1.6km/h 2.0mph /  3.2km/h 81% 0.00in /  0mm 0 W/m2
04:30 33.0 °F /  0.6 °C 27.8 °F /  -2.3 °C 30.06in /  1017.8hPa WSW 1.0mph /  1.6km/h 2.0mph /  3.2km/h 81% 0.00in /  0mm 0 W/m2
04:36 33.1 °F /  0.6 °C 27.6 °F /  -2.4 °C 30.06in /  1017.8hPa WSW 1.0mph /  1.6km/h 3.0mph /  4.8km/h 80% 0.00in /  0mm 0 W/m2
04:42 33.3 °F /  0.7 °C 27.8 °F /  -2.3 °C 30.06in /  1017.8hPa WSW 2.0mph /  3.2km/h 2.0mph /  3.2km/h 80% 0.00in /  0mm 0 W/m2
04:48 33.4 °F /  0.8 °C 27.9 °F /  -2.3 °C 30.06in /  1017.8hPa WSW 1.0mph /  1.6km/h 2.0mph /  3.2km/h 80% 0.00in /  0mm 0 W/m2
04:54 33.5 °F /  0.8 °C 27.7 °F /  -2.4 °C 30.06in /  1017.8hPa WSW 1.0mph /  1.6km/h 2.0mph /  3.2km/h 79% 0.00in /  0mm 0 W/m2
05:00 33.4 °F /  0.8 °C 27.6 °F /  -2.4 °C 30.06in /  1017.8hPa Calm     79% 0.00in /  0mm 0 W/m2
05:06 33.4 °F /  0.8 °C 27.6 °F /  -2.4 °C 30.07in /  1018.2hPa Calm   1.0mph /  1.6km/h 79% 0.00in /  0mm 0 W/m2
05:12 33.3 °F /  0.7 °C 27.8 °F /  -2.3 °C 30.07in /  1018.2hPa Calm   1.0mph /  1.6km/h 80% 0.00in /  0mm 0 W/m2
05:18 33.2 °F /  0.7 °C 27.7 °F /  -2.4 °C 30.07in /  1018.2hPa Calm   2.0mph /  3.2km/h 80% 0.00in /  0mm 0 W/m2
05:24 33.1 °F /  0.6 °C 27.6 °F /  -2.4 °C 30.07in /  1018.2hPa Calm   1.0mph /  1.6km/h 80% 0.00in /  0mm 0 W/m2
05:30 32.9 °F /  0.5 °C 27.4 °F /  -2.6 °C 30.07in /  1018.2hPa Calm     80% 0.00in /  0mm 0 W/m2
05:36 32.8 °F /  0.4 °C 27.3 °F /  -2.6 °C 30.07in /  1018.2hPa Calm     80% 0.00in /  0mm 0 W/m2
05:42 32.7 °F /  0.4 °C 27.2 °F /  -2.7 °C 30.08in /  1018.5hPa Calm     80% 0.00in /  0mm 0 W/m2
05:48 32.6 °F /  0.3 °C 27.1 °F /  -2.7 °C 30.08in /  1018.5hPa Calm     80% 0.00in /  0mm 0 W/m2
05:54 32.5 °F /  0.3 °C 27.0 °F /  -2.8 °C 30.08in /  1018.5hPa Calm     80% 0.00in /  0mm 0 W/m2
06:00 32.3 °F /  0.2 °C 27.1 °F /  -2.7 °C 30.09in /  1018.8hPa Calm     81% 0.00in /  0mm 0 W/m2
06:06 32.0 °F /  0 °C 26.8 °F /  -2.9 °C 30.10in /  1019.2hPa Calm     81% 0.00in /  0mm 0 W/m2
06:12 31.7 °F /  -0.2 °C 26.5 °F /  -3.1 °C 30.10in /  1019.2hPa Calm     81% 0.00in /  0mm 0 W/m2
06:18 31.5 °F /  -0.3 °C 26.3 °F /  -3.2 °C 30.10in /  1019.2hPa Calm     81% 0.00in /  0mm 0 W/m2
06:24 31.3 °F /  -0.4 °C 26.4 °F /  -3.1 °C 30.10in /  1019.2hPa Calm     82% 0.00in /  0mm 0 W/m2
06:30 31.1 °F /  -0.5 °C 26.2 °F /  -3.2 °C 30.10in /  1019.2hPa Calm     82% 0.00in /  0mm 0 W/m2
06:36 30.8 °F /  -0.7 °C 26.0 °F /  -3.3 °C 30.10in /  1019.2hPa Calm     82% 0.00in /  0mm 0 W/m2
06:42 30.4 °F /  -0.9 °C 25.6 °F /  -3.6 °C 30.10in /  1019.2hPa Calm     82% 0.00in /  0mm 0 W/m2
06:50 29.9 °F /  -1.2 °C 25.4 °F /  -3.7 °C 30.10in /  1019.2hPa Calm     83% 0.00in /  0mm 0 W/m2
06:56 29.4 °F /  -1.4 °C 24.9 °F /  -3.9 °C 30.10in /  1019.2hPa Calm     83% 0.00in /  0mm 0 W/m2
07:02 28.7 °F /  -1.8 °C 24.2 °F /  -4.3 °C 30.10in /  1019.2hPa Calm     83% 0.00in /  0mm 0 W/m2
07:08 28.4 °F /  -2 °C 24.2 °F /  -4.3 °C 30.10in /  1019.2hPa Calm     84% 0.00in /  0mm 0 W/m2
07:14 28.1 °F /  -2.2 °C 23.9 °F /  -4.5 °C 30.10in /  1019.2hPa Calm     84% 0.00in /  0mm 0 W/m2
07:20 27.7 °F /  -2.4 °C 23.5 °F /  -4.7 °C 30.10in /  1019.2hPa Calm     84% 0.00in /  0mm 0 W/m2
07:26 27.3 °F /  -2.6 °C 23.4 °F /  -4.8 °C 30.10in /  1019.2hPa Calm     85% 0.00in /  0mm 0 W/m2
07:32 27.0 °F /  -2.8 °C 23.1 °F /  -4.9 °C 30.10in /  1019.2hPa Calm     85% 0.00in /  0mm 0 W/m2
07:38 26.8 °F /  -2.9 °C 22.9 °F /  -5.1 °C 30.10in /  1019.2hPa Calm     85% 0.00in /  0mm 5 W/m2
07:44 26.6 °F /  -3 °C 23.0 °F /  -5 °C 30.10in /  1019.2hPa Calm     86% 0.00in /  0mm 7 W/m2
07:50 26.5 °F /  -3.1 °C 22.9 °F /  -5.1 °C 30.11in /  1019.5hPa Calm     86% 0.00in /  0mm 11 W/m2
07:56 26.4 °F /  -3.1 °C 22.8 °F /  -5.1 °C 30.11in /  1019.5hPa Calm     86% 0.00in /  0mm 21 W/m2
08:02 26.3 °F /  -3.2 °C 23.0 °F /  -5 °C 30.11in /  1019.5hPa Calm     87% 0.00in /  0mm 35 W/m2
08:08 26.3 °F /  -3.2 °C 23.0 °F /  -5 °C 30.11in /  1019.5hPa Calm     87% 0.00in /  0mm 37 W/m2
08:14 26.5 °F /  -3.1 °C 23.2 °F /  -4.9 °C 30.11in /  1019.5hPa Calm     87% 0.00in /  0mm 37 W/m2
08:20 26.6 °F /  -3 °C 23.3 °F /  -4.8 °C 30.11in /  1019.5hPa Calm     87% 0.00in /  0mm 46 W/m2
08:26 26.9 °F /  -2.8 °C 23.8 °F /  -4.6 °C 30.12in /  1019.9hPa Calm     88% 0.00in /  0mm 42 W/m2
08:32 27.2 °F /  -2.7 °C 24.1 °F /  -4.4 °C 30.13in /  1020.2hPa Calm     88% 0.00in /  0mm 91 W/m2
08:38 27.5 °F /  -2.5 °C 24.4 °F /  -4.2 °C 30.13in /  1020.2hPa Calm     88% 0.00in /  0mm 125 W/m2
08:44 28.1 °F /  -2.2 °C 25.3 °F /  -3.7 °C 30.13in /  1020.2hPa Calm     89% 0.00in /  0mm 132 W/m2
08:50 28.6 °F /  -1.9 °C 25.5 °F /  -3.6 °C 30.13in /  1020.2hPa Calm     88% 0.00in /  0mm 148 W/m2
08:56 29.3 °F /  -1.5 °C 26.5 °F /  -3.1 °C 30.13in /  1020.2hPa Calm     89% 0.00in /  0mm 163 W/m2
09:02 29.9 °F /  -1.2 °C 26.8 °F /  -2.9 °C 30.13in /  1020.2hPa Calm     88% 0.00in /  0mm 183 W/m2
09:08 30.6 °F /  -0.8 °C 27.5 °F /  -2.5 °C 30.13in /  1020.2hPa Calm     88% 0.00in /  0mm 202 W/m2
09:14 31.3 °F /  -0.4 °C 27.3 °F /  -2.6 °C 30.13in /  1020.2hPa Calm     85% 0.00in /  0mm 216 W/m2
09:20 32.0 °F /  0 °C 27.4 °F /  -2.6 °C 30.13in /  1020.2hPa Calm     83% 0.00in /  0mm 236 W/m2
09:26 33.0 °F /  0.6 °C 28.1 °F /  -2.2 °C 30.13in /  1020.2hPa Calm     82% 0.00in /  0mm 255 W/m2
09:32 35.2 °F /  1.8 °C 29.3 °F /  -1.5 °C 30.13in /  1020.2hPa Calm     79% 0.00in /  0mm 271 W/m2
09:38 36.2 °F /  2.3 °C 29.4 °F /  -1.4 °C 30.13in /  1020.2hPa Calm     76% 0.00in /  0mm 281 W/m2
09:44 36.8 °F /  2.7 °C 29.6 °F /  -1.3 °C 30.13in /  1020.2hPa Calm     75% 0.00in /  0mm 272 W/m2
09:50 37.1 °F /  2.8 °C 29.9 °F /  -1.2 °C 30.13in /  1020.2hPa Calm   1.0mph /  1.6km/h 75% 0.00in /  0mm 267 W/m2
09:56 37.6 °F /  3.1 °C 29.7 °F /  -1.3 °C 30.13in /  1020.2hPa Calm   1.0mph /  1.6km/h 73% 0.00in /  0mm 271 W/m2
10:02 38.2 °F /  3.4 °C 30.3 °F /  -0.9 °C 30.13in /  1020.2hPa Calm     73% 0.00in /  0mm 313 W/m2
10:08 38.9 °F /  3.8 °C 30.6 °F /  -0.8 °C 30.13in /  1020.2hPa Calm   1.0mph /  1.6km/h 72% 0.00in /  0mm 338 W/m2
10:14 39.3 °F /  4.1 °C 30.3 °F /  -0.9 °C 30.13in /  1020.2hPa WSW 1.0mph /  1.6km/h 1.0mph /  1.6km/h 70% 0.00in /  0mm 352 W/m2
10:20 39.7 °F /  4.3 °C 30.4 °F /  -0.9 °C 30.13in /  1020.2hPa WSW 1.0mph /  1.6km/h 1.0mph /  1.6km/h 69% 0.00in /  0mm 332 W/m2
10:26 39.7 °F /  4.3 °C 30.4 °F /  -0.9 °C 30.13in /  1020.2hPa WSW 1.0mph /  1.6km/h 3.0mph /  4.8km/h 69% 0.00in /  0mm 348 W/m2
10:32 39.7 °F /  4.3 °C 30.4 °F /  -0.9 °C 30.13in /  1020.2hPa West 2.0mph /  3.2km/h 2.0mph /  3.2km/h 69% 0.00in /  0mm 332 W/m2
10:38 39.9 °F /  4.4 °C 30.2 °F /  -1 °C 30.13in /  1020.2hPa South 1.0mph /  1.6km/h 2.0mph /  3.2km/h 68% 0.00in /  0mm 251 W/m2
10:44 39.8 °F /  4.3 °C 30.5 °F /  -0.8 °C 30.13in /  1020.2hPa Calm   1.0mph /  1.6km/h 69% 0.00in /  0mm 167 W/m2
10:50 39.2 °F /  4 °C 30.2 °F /  -1 °C 30.13in /  1020.2hPa South 1.0mph /  1.6km/h 2.0mph /  3.2km/h 70% 0.00in /  0mm 141 W/m2
10:56 38.9 °F /  3.8 °C 29.9 °F /  -1.2 °C 30.13in /  1020.2hPa South 1.0mph /  1.6km/h 2.0mph /  3.2km/h 70% 0.00in /  0mm 127 W/m2
11:03 38.9 °F /  3.8 °C 30.3 °F /  -0.9 °C 30.13in /  1020.2hPa Calm   1.0mph /  1.6km/h 71% 0.00in /  0mm 169 W/m2
11:08 39.1 °F /  3.9 °C 30.5 °F /  -0.8 °C 30.13in /  1020.2hPa Calm   1.0mph /  1.6km/h 71% 0.00in /  0mm 206 W/m2
11:14 39.5 °F /  4.2 °C 30.5 °F /  -0.8 °C 30.13in /  1020.2hPa Calm     70% 0.00in /  0mm 199 W/m2
11:20 40.1 °F /  4.5 °C 30.7 °F /  -0.7 °C 30.12in /  1019.9hPa Calm   1.0mph /  1.6km/h 69% 0.00in /  0mm 216 W/m2
11:26 40.0 °F /  4.4 °C 30.6 °F /  -0.8 °C 30.12in /  1019.9hPa Calm     69% 0.00in /  0mm 223 W/m2
11:32 40.1 °F /  4.5 °C 30.7 °F /  -0.7 °C 30.12in /  1019.9hPa Calm   1.0mph /  1.6km/h 69% 0.00in /  0mm 246 W/m2
11:38 40.9 °F /  4.9 °C 31.1 °F /  -0.5 °C 30.12in /  1019.9hPa Calm   1.0mph /  1.6km/h 68% 0.00in /  0mm 278 W/m2
11:44 41.1 °F /  5.1 °C 31.0 °F /  -0.6 °C 30.11in /  1019.5hPa Calm   1.0mph /  1.6km/h 67% 0.00in /  0mm 271 W/m2
11:50 41.0 °F /  5 °C 30.9 °F /  -0.6 °C 30.11in /  1019.5hPa Calm     67% 0.00in /  0mm 255 W/m2
11:56 41.3 °F /  5.2 °C 30.8 °F /  -0.7 °C 30.11in /  1019.5hPa Calm     66% 0.00in /  0mm 360 W/m2
12:02 40.9 °F /  4.9 °C 30.4 °F /  -0.9 °C 30.11in /  1019.5hPa Calm   1.0mph /  1.6km/h 66% 0.00in /  0mm 285 W/m2
12:08 41.0 °F /  5 °C 30.9 °F /  -0.6 °C 30.11in /  1019.5hPa Calm   2.0mph /  3.2km/h 67% 0.00in /  0mm 438 W/m2
12:14 41.6 °F /  5.3 °C 31.4 °F /  -0.3 °C 30.10in /  1019.2hPa Calm   1.0mph /  1.6km/h 67% 0.00in /  0mm 496 W/m2
12:20 42.5 °F /  5.8 °C 31.2 °F /  -0.4 °C 30.10in /  1019.2hPa NW 1.0mph /  1.6km/h 3.0mph /  4.8km/h 64% 0.00in /  0mm 454 W/m2
12:26 42.6 °F /  5.9 °C 31.7 °F /  -0.2 °C 30.10in /  1019.2hPa SE 1.0mph /  1.6km/h 3.0mph /  4.8km/h 65% 0.00in /  0mm 454 W/m2
12:32 42.1 °F /  5.6 °C 31.2 °F /  -0.4 °C 30.10in /  1019.2hPa SE 1.0mph /  1.6km/h 3.0mph /  4.8km/h 65% 0.00in /  0mm 236 W/m2
12:38 41.5 °F /  5.3 °C 31.0 °F /  -0.6 °C 30.10in /  1019.2hPa SE 1.0mph /  1.6km/h 3.0mph /  4.8km/h 66% 0.00in /  0mm 248 W/m2
12:44 41.3 °F /  5.2 °C 30.8 °F /  -0.7 °C 30.10in /  1019.2hPa SE 1.0mph /  1.6km/h 2.0mph /  3.2km/h 66% 0.00in /  0mm 237 W/m2
12:50 41.6 °F /  5.3 °C 31.4 °F /  -0.3 °C 30.10in /  1019.2hPa SE 1.0mph /  1.6km/h 1.0mph /  1.6km/h 67% 0.00in /  0mm 229 W/m2
12:56 42.0 °F /  5.6 °C 31.5 °F /  -0.3 °C 30.09in /  1018.8hPa Calm   1.0mph /  1.6km/h 66% 0.00in /  0mm 211 W/m2
13:02 41.7 °F /  5.4 °C 31.2 °F /  -0.4 °C 30.09in /  1018.8hPa SSE 2.0mph /  3.2km/h 3.0mph /  4.8km/h 66% 0.00in /  0mm 223 W/m2
13:08 41.8 °F /  5.4 °C 31.6 °F /  -0.2 °C 30.09in /  1018.8hPa West 2.0mph /  3.2km/h 3.0mph /  4.8km/h 67% 0.00in /  0mm 251 W/m2
13:14 41.9 °F /  5.5 °C 31.4 °F /  -0.3 °C 30.08in /  1018.5hPa South 1.0mph /  1.6km/h 3.0mph /  4.8km/h 66% 0.00in /  0mm 301 W/m2
13:20 42.1 °F /  5.6 °C 31.6 °F /  -0.2 °C 30.08in /  1018.5hPa South 2.0mph /  3.2km/h 2.0mph /  3.2km/h 66% 0.00in /  0mm 283 W/m2
13:26 42.3 °F /  5.7 °C 31.4 °F /  -0.3 °C 30.08in /  1018.5hPa South 1.0mph /  1.6km/h 2.0mph /  3.2km/h 65% 0.00in /  0mm 387 W/m2
13:32 42.5 °F /  5.8 °C 31.2 °F /  -0.4 °C 30.08in /  1018.5hPa NE 2.0mph /  3.2km/h 2.0mph /  3.2km/h 64% 0.00in /  0mm 367 W/m2
13:38 42.7 °F /  5.9 °C 31.4 °F /  -0.3 °C 30.08in /  1018.5hPa NE 2.0mph /  3.2km/h 4.0mph /  6.4km/h 64% 0.00in /  0mm 255 W/m2
13:44 42.4 °F /  5.8 °C 31.1 °F /  -0.5 °C 30.08in /  1018.5hPa ENE 2.0mph /  3.2km/h 2.0mph /  3.2km/h 64% 0.00in /  0mm 243 W/m2
13:50 42.0 °F /  5.6 °C 31.1 °F /  -0.5 °C 30.08in /  1018.5hPa ESE 1.0mph /  1.6km/h 3.0mph /  4.8km/h 65% 0.00in /  0mm 207 W/m2
13:56 41.7 °F /  5.4 °C 31.2 °F /  -0.4 °C 30.08in /  1018.5hPa East 2.0mph /  3.2km/h 3.0mph /  4.8km/h 66% 0.00in /  0mm 183 W/m2
14:02 41.7 °F /  5.4 °C 31.2 °F /  -0.4 °C 30.08in /  1018.5hPa East 1.0mph /  1.6km/h 3.0mph /  4.8km/h 66% 0.00in /  0mm 160 W/m2
14:08 41.7 °F /  5.4 °C 31.2 °F /  -0.4 °C 30.08in /  1018.5hPa ENE 2.0mph /  3.2km/h 3.0mph /  4.8km/h 66% 0.00in /  0mm 149 W/m2
14:14 41.4 °F /  5.2 °C 30.9 °F /  -0.6 °C 30.08in /  1018.5hPa NE 2.0mph /  3.2km/h 3.0mph /  4.8km/h 66% 0.00in /  0mm 125 W/m2
14:20 41.1 °F /  5.1 °C 31.0 °F /  -0.6 °C 30.08in /  1018.5hPa ENE 2.0mph /  3.2km/h 3.0mph /  4.8km/h 67% 0.00in /  0mm 125 W/m2
14:26 40.7 °F /  4.8 °C 30.6 °F /  -0.8 °C 30.08in /  1018.5hPa ENE 3.0mph /  4.8km/h 3.0mph /  4.8km/h 67% 0.00in /  0mm 118 W/m2
14:32 40.4 °F /  4.7 °C 30.7 °F /  -0.7 °C 30.08in /  1018.5hPa NE 3.0mph /  4.8km/h 3.0mph /  4.8km/h 68% 0.00in /  0mm 98 W/m2
14:38 40.2 °F /  4.6 °C 30.8 °F /  -0.7 °C 30.08in /  1018.5hPa NE 2.0mph /  3.2km/h 4.0mph /  6.4km/h 69% 0.00in /  0mm 84 W/m2
14:44 40.1 °F /  4.5 °C 30.7 °F /  -0.7 °C 30.08in /  1018.5hPa NE 2.0mph /  3.2km/h 4.0mph /  6.4km/h 69% 0.00in /  0mm 79 W/m2
14:50 39.9 °F /  4.4 °C 30.5 °F /  -0.8 °C 30.08in /  1018.5hPa NE 2.0mph /  3.2km/h 4.0mph /  6.4km/h 69% 0.00in /  0mm 79 W/m2
14:56 39.8 °F /  4.3 °C 30.5 °F /  -0.8 °C 30.08in /  1018.5hPa NE 2.0mph /  3.2km/h 4.0mph /  6.4km/h 69% 0.00in /  0mm 76 W/m2
15:08 39.5 °F /  4.2 °C 30.5 °F /  -0.8 °C 30.08in /  1018.5hPa ENE 3.0mph /  4.8km/h 4.0mph /  6.4km/h 70% 0.00in /  0mm 56 W/m2
15:14 39.3 °F /  4.1 °C 30.3 °F /  -0.9 °C 30.08in /  1018.5hPa ENE 2.0mph /  3.2km/h 3.0mph /  4.8km/h 70% 0.00in /  0mm 56 W/m2
15:20 39.2 °F /  4 °C 30.6 °F /  -0.8 °C 30.08in /  1018.5hPa ENE 2.0mph /  3.2km/h 2.0mph /  3.2km/h 71% 0.00in /  0mm 58 W/m2
15:26 39.2 °F /  4 °C 30.6 °F /  -0.8 °C 30.08in /  1018.5hPa ENE 1.0mph /  1.6km/h 2.0mph /  3.2km/h 71% 0.00in /  0mm 49 W/m2
15:32 39.1 °F /  3.9 °C 30.5 °F /  -0.8 °C 30.08in /  1018.5hPa ENE 1.0mph /  1.6km/h 3.0mph /  4.8km/h 71% 0.00in /  0mm 44 W/m2
15:38 39.1 °F /  3.9 °C 30.5 °F /  -0.8 °C 30.08in /  1018.5hPa NE 2.0mph /  3.2km/h 3.0mph /  4.8km/h 71% 0.00in /  0mm 40 W/m2
15:44 39.1 °F /  3.9 °C 30.5 °F /  -0.8 °C 30.08in /  1018.5hPa ENE 2.0mph /  3.2km/h 3.0mph /  4.8km/h 71% 0.00in /  0mm 42 W/m2
15:50 39.0 °F /  3.9 °C 30.4 °F /  -0.9 °C 30.08in /  1018.5hPa ENE 2.0mph /  3.2km/h 2.0mph /  3.2km/h 71% 0.00in /  0mm 39 W/m2
15:56 39.0 °F /  3.9 °C 30.4 °F /  -0.9 °C 30.08in /  1018.5hPa ENE 2.0mph /  3.2km/h 3.0mph /  4.8km/h 71% 0.00in /  0mm 40 W/m2
16:02 38.9 °F /  3.8 °C 30.3 °F /  -0.9 °C 30.08in /  1018.5hPa ENE 1.0mph /  1.6km/h 3.0mph /  4.8km/h 71% 0.00in /  0mm 39 W/m2
16:08 38.8 °F /  3.8 °C 30.5 °F /  -0.8 °C 30.09in /  1018.8hPa ENE 1.0mph /  1.6km/h 3.0mph /  4.8km/h 72% 0.00in /  0mm 33 W/m2
16:14 38.8 °F /  3.8 °C 30.5 °F /  -0.8 °C 30.09in /  1018.8hPa ENE 2.0mph /  3.2km/h 3.0mph /  4.8km/h 72% 0.00in /  0mm 32 W/m2
16:20 38.8 °F /  3.8 °C 30.5 °F /  -0.8 °C 30.09in /  1018.8hPa ENE 2.0mph /  3.2km/h 2.0mph /  3.2km/h 72% 0.00in /  0mm 26 W/m2
16:26 38.6 °F /  3.7 °C 30.4 °F /  -0.9 °C 30.09in /  1018.8hPa East 2.0mph /  3.2km/h 3.0mph /  4.8km/h 72% 0.00in /  0mm 21 W/m2
16:32 38.5 °F /  3.6 °C 30.3 °F /  -0.9 °C 30.09in /  1018.8hPa ENE 2.0mph /  3.2km/h 2.0mph /  3.2km/h 72% 0.00in /  0mm 14 W/m2
16:38 38.5 °F /  3.6 °C 30.3 °F /  -0.9 °C 30.09in /  1018.8hPa ENE 2.0mph /  3.2km/h 3.0mph /  4.8km/h 72% 0.00in /  0mm 11 W/m2
16:44 38.5 °F /  3.6 °C 30.3 °F /  -0.9 °C 30.09in /  1018.8hPa ENE 2.0mph /  3.2km/h 5.0mph /  8km/h 72% 0.00in /  0mm 9 W/m2
16:50 38.3 °F /  3.5 °C 30.4 °F /  -0.9 °C 30.09in /  1018.8hPa ENE 2.0mph /  3.2km/h 2.0mph /  3.2km/h 73% 0.00in /  0mm 5 W/m2
16:56 38.3 °F /  3.5 °C 30.4 °F /  -0.9 °C 30.09in /  1018.8hPa ENE 1.0mph /  1.6km/h 2.0mph /  3.2km/h 73% 0.00in /  0mm 0 W/m2
17:02 38.2 °F /  3.4 °C 30.3 °F /  -0.9 °C 30.09in /  1018.8hPa ENE 1.0mph /  1.6km/h 3.0mph /  4.8km/h 73% 0.00in /  0mm 0 W/m2
17:08 38.1 °F /  3.4 °C 30.2 °F /  -1 °C 30.09in /  1018.8hPa East 1.0mph /  1.6km/h 3.0mph /  4.8km/h 73% 0.00in /  0mm 0 W/m2
17:14 38.1 °F /  3.4 °C 30.2 °F /  -1 °C 30.09in /  1018.8hPa East 1.0mph /  1.6km/h 2.0mph /  3.2km/h 73% 0.00in /  0mm 0 W/m2
17:20 38.0 °F /  3.3 °C 30.1 °F /  -1.1 °C 30.08in /  1018.5hPa East 1.0mph /  1.6km/h 1.0mph /  1.6km/h 73% 0.00in /  0mm 0 W/m2
17:32 37.8 °F /  3.2 °C 30.3 °F /  -0.9 °C 30.09in /  1018.8hPa Calm     74% 0.00in /  0mm 0 W/m2
17:38 37.7 °F /  3.2 °C 30.2 °F /  -1 °C 30.08in /  1018.5hPa Calm   1.0mph /  1.6km/h 74% 0.00in /  0mm 0 W/m2
17:44 37.7 °F /  3.2 °C 30.5 °F /  -0.8 °C 30.08in /  1018.5hPa East 1.0mph /  1.6km/h 2.0mph /  3.2km/h 75% 0.00in /  0mm 0 W/m2
17:50 37.7 °F /  3.2 °C 30.2 °F /  -1 °C 30.08in /  1018.5hPa East 1.0mph /  1.6km/h 1.0mph /  1.6km/h 74% 0.00in /  0mm 0 W/m2
17:56 37.6 °F /  3.1 °C 30.4 °F /  -0.9 °C 30.08in /  1018.5hPa East 1.0mph /  1.6km/h 3.0mph /  4.8km/h 75% 0.00in /  0mm 0 W/m2
18:08 37.8 °F /  3.2 °C 30.6 °F /  -0.8 °C 30.09in /  1018.8hPa East 1.0mph /  1.6km/h 3.0mph /  4.8km/h 75% 0.00in /  0mm 0 W/m2
18:14 37.8 °F /  3.2 °C 30.6 °F /  -0.8 °C 30.09in /  1018.8hPa East 1.0mph /  1.6km/h 1.0mph /  1.6km/h 75% 0.00in /  0mm 0 W/m2
18:20 37.6 °F /  3.1 °C 30.4 °F /  -0.9 °C 30.09in /  1018.8hPa ENE 1.0mph /  1.6km/h 1.0mph /  1.6km/h 75% 0.00in /  0mm 0 W/m2
18:26 37.5 °F /  3.1 °C 30.3 °F /  -0.9 °C 30.09in /  1018.8hPa ENE 1.0mph /  1.6km/h 1.0mph /  1.6km/h 75% 0.00in /  0mm 0 W/m2
18:38 37.2 °F /  2.9 °C 30.0 °F /  -1.1 °C 30.09in /  1018.8hPa Calm   2.0mph /  3.2km/h 75% 0.00in /  0mm 0 W/m2
18:44 37.3 °F /  2.9 °C 30.4 °F /  -0.9 °C 30.09in /  1018.8hPa Calm     76% 0.00in /  0mm 0 W/m2
18:50 37.3 °F /  2.9 °C 30.4 °F /  -0.9 °C 30.09in /  1018.8hPa Calm     76% 0.00in /  0mm 0 W/m2
18:56 37.3 °F /  2.9 °C 30.4 °F /  -0.9 °C 30.09in /  1018.8hPa Calm   1.0mph /  1.6km/h 76% 0.00in /  0mm 0 W/m2
19:03 37.0 °F /  2.8 °C 30.1 °F /  -1.1 °C 30.09in /  1018.8hPa Calm     76% 0.00in /  0mm 0 W/m2
19:08 36.8 °F /  2.7 °C 30.3 °F /  -0.9 °C 30.09in /  1018.8hPa ENE 1.0mph /  1.6km/h 2.0mph /  3.2km/h 77% 0.00in /  0mm 0 W/m2
19:14 36.6 °F /  2.6 °C 30.1 °F /  -1.1 °C 30.09in /  1018.8hPa ENE 1.0mph /  1.6km/h 1.0mph /  1.6km/h 77% 0.00in /  0mm 0 W/m2
19:20 36.6 °F /  2.6 °C 30.1 °F /  -1.1 °C 30.09in /  1018.8hPa ENE 1.0mph /  1.6km/h 1.0mph /  1.6km/h 77% 0.00in /  0mm 0 W/m2
19:26 36.4 °F /  2.4 °C 30.2 °F /  -1 °C 30.09in /  1018.8hPa Calm   2.0mph /  3.2km/h 78% 0.00in /  0mm 0 W/m2
19:32 36.2 °F /  2.3 °C 30.0 °F /  -1.1 °C 30.09in /  1018.8hPa ENE 1.0mph /  1.6km/h 1.0mph /  1.6km/h 78% 0.00in /  0mm 0 W/m2
19:38 36.0 °F /  2.2 °C 30.1 °F /  -1.1 °C 30.09in /  1018.8hPa Calm   2.0mph /  3.2km/h 79% 0.00in /  0mm 0 W/m2
19:44 36.1 °F /  2.3 °C 30.2 °F /  -1 °C 30.09in /  1018.8hPa ENE 1.0mph /  1.6km/h 1.0mph /  1.6km/h 79% 0.00in /  0mm 0 W/m2
19:50 35.9 °F /  2.2 °C 30.0 °F /  -1.1 °C 30.09in /  1018.8hPa Calm     79% 0.00in /  0mm 0 W/m2
19:56 35.8 °F /  2.1 °C 29.9 °F /  -1.2 °C 30.08in /  1018.5hPa Calm     79% 0.00in /  0mm 0 W/m2
20:02 35.8 °F /  2.1 °C 30.2 °F /  -1 °C 30.08in /  1018.5hPa Calm     80% 0.00in /  0mm 0 W/m2
20:08 35.9 °F /  2.2 °C 30.3 °F /  -0.9 °C 30.09in /  1018.8hPa Calm     80% 0.00in /  0mm 0 W/m2
20:14 36.2 °F /  2.3 °C 30.6 °F /  -0.8 °C 30.08in /  1018.5hPa ENE 1.0mph /  1.6km/h 2.0mph /  3.2km/h 80% 0.00in /  0mm 0 W/m2
20:20 36.0 °F /  2.2 °C 30.1 °F /  -1.1 °C 30.08in /  1018.5hPa ENE 1.0mph /  1.6km/h 1.0mph /  1.6km/h 79% 0.00in /  0mm 0 W/m2
20:26 35.9 °F /  2.2 °C 30.3 °F /  -0.9 °C 30.09in /  1018.8hPa ENE 1.0mph /  1.6km/h 1.0mph /  1.6km/h 80% 0.00in /  0mm 0 W/m2
20:32 36.0 °F /  2.2 °C 30.4 °F /  -0.9 °C 30.08in /  1018.5hPa ENE 1.0mph /  1.6km/h 1.0mph /  1.6km/h 80% 0.00in /  0mm 0 W/m2
20:38 36.0 °F /  2.2 °C 30.4 °F /  -0.9 °C 30.09in /  1018.8hPa Calm   1.0mph /  1.6km/h 80% 0.00in /  0mm 0 W/m2
20:44 35.8 °F /  2.1 °C 30.2 °F /  -1 °C 30.08in /  1018.5hPa Calm     80% 0.00in /  0mm 0 W/m2
20:50 35.7 °F /  2.1 °C 30.1 °F /  -1.1 °C 30.08in /  1018.5hPa Calm   1.0mph /  1.6km/h 80% 0.00in /  0mm 0 W/m2
20:56 35.7 °F /  2.1 °C 30.1 °F /  -1.1 °C 30.08in /  1018.5hPa Calm   1.0mph /  1.6km/h 80% 0.00in /  0mm 0 W/m2
21:02 35.5 °F /  1.9 °C 30.2 °F /  -1 °C 30.08in /  1018.5hPa Calm   1.0mph /  1.6km/h 81% 0.00in /  0mm 0 W/m2
21:08 35.3 °F /  1.8 °C 30.1 °F /  -1.1 °C 30.08in /  1018.5hPa Calm   1.0mph /  1.6km/h 81% 0.00in /  0mm 0 W/m2
21:14 35.3 °F /  1.8 °C 30.1 °F /  -1.1 °C 30.08in /  1018.5hPa Calm     81% 0.00in /  0mm 0 W/m2
21:20 35.4 °F /  1.9 °C 30.1 °F /  -1.1 °C 30.08in /  1018.5hPa Calm   2.0mph /  3.2km/h 81% 0.00in /  0mm 0 W/m2
21:26 35.3 °F /  1.8 °C 30.1 °F /  -1.1 °C 30.08in /  1018.5hPa Calm   2.0mph /  3.2km/h 81% 0.00in /  0mm 0 W/m2
21:32 35.4 °F /  1.9 °C 30.1 °F /  -1.1 °C 30.08in /  1018.5hPa ENE 1.0mph /  1.6km/h 1.0mph /  1.6km/h 81% 0.00in /  0mm 0 W/m2
21:38 35.3 °F /  1.8 °C 30.1 °F /  -1.1 °C 30.08in /  1018.5hPa ENE 1.0mph /  1.6km/h 2.0mph /  3.2km/h 81% 0.00in /  0mm 0 W/m2
21:44 35.2 °F /  1.8 °C 30.3 °F /  -0.9 °C 30.08in /  1018.5hPa Calm     82% 0.00in /  0mm 0 W/m2
22:02 34.8 °F /  1.6 °C 30.2 °F /  -1 °C 30.08in /  1018.5hPa ENE 1.0mph /  1.6km/h 1.0mph /  1.6km/h 83% 0.00in /  0mm 0 W/m2
22:08 35.0 °F /  1.7 °C 30.4 °F /  -0.9 °C 30.08in /  1018.5hPa ENE 1.0mph /  1.6km/h 1.0mph /  1.6km/h 83% 0.00in /  0mm 0 W/m2
22:14 35.2 °F /  1.8 °C 30.6 °F /  -0.8 °C 30.08in /  1018.5hPa Calm   2.0mph /  3.2km/h 83% 0.00in /  0mm 0 W/m2
22:20 35.1 °F /  1.7 °C 30.5 °F /  -0.8 °C 30.08in /  1018.5hPa ENE 1.0mph /  1.6km/h 1.0mph /  1.6km/h 83% 0.00in /  0mm 0 W/m2
22:26 34.9 °F /  1.6 °C 30.6 °F /  -0.8 °C 30.08in /  1018.5hPa Calm   1.0mph /  1.6km/h 84% 0.00in /  0mm 0 W/m2
22:32 35.0 °F /  1.7 °C 30.7 °F /  -0.7 °C 30.08in /  1018.5hPa Calm     84% 0.00in /  0mm 0 W/m2
22:38 35.1 °F /  1.7 °C 30.8 °F /  -0.7 °C 30.08in /  1018.5hPa ENE 1.0mph /  1.6km/h 2.0mph /  3.2km/h 84% 0.00in /  0mm 0 W/m2
22:44 35.1 °F /  1.7 °C 30.8 °F /  -0.7 °C 30.08in /  1018.5hPa ENE 1.0mph /  1.6km/h 1.0mph /  1.6km/h 84% 0.00in /  0mm 0 W/m2
22:50 35.2 °F /  1.8 °C 30.9 °F /  -0.6 °C 30.08in /  1018.5hPa ENE 1.0mph /  1.6km/h 1.0mph /  1.6km/h 84% 0.00in /  0mm 0 W/m2
22:56 35.1 °F /  1.7 °C 30.8 °F /  -0.7 °C 30.08in /  1018.5hPa ENE 1.0mph /  1.6km/h 1.0mph /  1.6km/h 84% 0.00in /  0mm 0 W/m2
23:08 35.2 °F /  1.8 °C 30.9 °F /  -0.6 °C 30.08in /  1018.5hPa ENE 1.0mph /  1.6km/h 2.0mph /  3.2km/h 84% 0.00in /  0mm 0 W/m2
23:14 35.3 °F /  1.8 °C 30.9 °F /  -0.6 °C 30.08in /  1018.5hPa East 1.0mph /  1.6km/h 3.0mph /  4.8km/h 84% 0.00in /  0mm 0 W/m2
23:20 35.4 °F /  1.9 °C 31.0 °F /  -0.6 °C 30.08in /  1018.5hPa East 1.0mph /  1.6km/h 2.0mph /  3.2km/h 84% 0.00in /  0mm 0 W/m2
23:26 35.4 °F /  1.9 °C 31.0 °F /  -0.6 °C 30.08in /  1018.5hPa East 2.0mph /  3.2km/h 3.0mph /  4.8km/h 84% 0.00in /  0mm 0 W/m2
23:32 35.4 °F /  1.9 °C 31.0 °F /  -0.6 °C 30.08in /  1018.5hPa East 1.0mph /  1.6km/h 1.0mph /  1.6km/h 84% 0.00in /  0mm 0 W/m2
23:40 35.0 °F /  1.7 °C 30.7 °F /  -0.7 °C 30.08in /  1018.5hPa East 1.0mph /  1.6km/h 2.0mph /  3.2km/h 84% 0.00in /  0mm 0 W/m2
23:46 34.7 °F /  1.5 °C 30.7 °F /  -0.7 °C 30.08in /  1018.5hPa East 1.0mph /  1.6km/h 2.0mph /  3.2km/h 85% 0.00in /  0mm 0 W/m2
23:52 34.6 °F /  1.4 °C 30.8 °F /  -0.7 °C 30.08in /  1018.5hPa East 1.0mph /  1.6km/h 2.0mph /  3.2km/h 86% 0.00in /  0mm 0 W/m2
Country Meadow, Clay, NY, USA
Compliments of Weather Underground - 2 mb